Time;durP1;ratioP1;P1;durP2;ratioP2;P2;SDS_P1;SDS_P2;PMS_P1;PMS_P2;Temp;Humidity;BMP_temperature;BMP_pressure;BME280_temperature;BME280_humidity;BME280_pressure;Samples;Min_cycle;Max_cycle;Signal;HPM_P1;HPM_P2
2023/03/30 00:01:56;;;;;;;10.60;4.70;;;;;;;13.51;100.00;100349.31;5008353;28;20049;-75
2023/03/30 00:04:25;;;;;;;12.35;5.57;;;;;;;13.56;100.00;100354.31;5027569;28;20049;-79
2023/03/30 00:06:52;;;;;;;11.75;4.60;;;;;;;13.61;100.00;100357.53;5028063;28;20502;-77
2023/03/30 00:09:18;;;;;;;8.93;4.40;;;;;;;13.67;100.00;100357.06;5028229;28;20034;-77
2023/03/30 00:11:44;;;;;;;12.25;4.45;;;;;;;13.72;100.00;100352.19;5028203;28;20109;-78
2023/03/30 00:14:11;;;;;;;10.88;4.32;;;;;;;13.46;100.00;100346.13;5027234;28;21371;-77
2023/03/30 00:16:37;;;;;;;9.98;5.07;;;;;;;13.17;100.00;100340.22;5029113;28;20044;-79
2023/03/30 00:19:04;;;;;;;7.85;4.07;;;;;;;13.05;100.00;100347.38;4993731;28;20048;-78
2023/03/30 00:21:30;;;;;;;10.70;4.80;;;;;;;13.07;100.00;100349.94;5010118;28;20479;-78
2023/03/30 00:23:56;;;;;;;10.30;4.70;;;;;;;13.06;100.00;100341.00;4990526;28;20037;-77
2023/03/30 00:26:22;;;;;;;10.63;4.40;;;;;;;13.11;100.00;100349.56;5012088;28;20033;-78
2023/03/30 00:28:50;;;;;;;15.77;4.60;;;;;;;13.14;100.00;100346.69;5009470;28;20494;-77
2023/03/30 00:31:17;;;;;;;14.63;4.75;;;;;;;13.24;100.00;100352.22;5003357;28;20041;-79
2023/03/30 00:33:45;;;;;;;11.90;4.75;;;;;;;13.27;100.00;100351.13;5012999;28;20060;-77
2023/03/30 00:36:11;;;;;;;10.55;4.53;;;;;;;13.28;100.00;100331.41;5008592;28;20490;-77
2023/03/30 00:38:39;;;;;;;10.20;4.50;;;;;;;13.33;100.00;100337.31;5019378;28;20038;-79
2023/03/30 00:41:05;;;;;;;11.50;4.90;;;;;;;13.33;100.00;100350.72;5005003;28;20042;-78
2023/03/30 00:43:32;;;;;;;10.80;5.05;;;;;;;13.34;100.00;100345.25;5010256;28;20128;-79
2023/03/30 00:45:59;;;;;;;10.23;4.63;;;;;;;13.32;100.00;100346.31;5027142;28;20048;-78
2023/03/30 00:48:33;;;;;;;11.90;5.18;;;;;;;13.29;100.00;100341.13;4992091;28;20558;-78
2023/03/30 00:51:02;;;;;;;10.68;4.70;;;;;;;13.23;100.00;100338.91;5012017;28;20148;-78
2023/03/30 00:53:38;;;;;;;10.02;5.00;;;;;;;13.18;100.00;100350.84;4996456;28;20041;-79
2023/03/30 00:56:07;;;;;;;7.78;4.45;;;;;;;13.13;100.00;100346.78;4988358;28;20068;-77
2023/03/30 00:58:35;;;;;;;9.55;4.47;;;;;;;13.05;100.00;100331.28;5012056;28;20052;-80
2023/03/30 01:01:05;;;;;;;10.75;4.80;;;;;;;12.95;100.00;100323.06;5011835;28;20022;-78
2023/03/30 01:03:33;;;;;;;8.57;4.57;;;;;;;12.92;100.00;100317.09;4996469;28;20030;-78
2023/03/30 01:06:02;;;;;;;10.35;4.47;;;;;;;12.85;100.00;100313.16;5004556;28;20105;-77
2023/03/30 01:08:31;;;;;;;7.63;4.13;;;;;;;12.78;100.00;100313.56;4998464;28;20029;-78
2023/03/30 01:11:00;;;;;;;10.05;4.60;;;;;;;12.71;100.00;100303.41;5005626;28;20041;-78
2023/03/30 01:13:33;;;;;;;8.07;4.50;;;;;;;12.68;100.00;100304.50;5018982;28;20046;-79
2023/03/30 01:16:26;;;;;;;12.05;5.00;;;;;;;12.63;100.00;100312.00;5006117;28;20038;-78
2023/03/30 01:19:36;;;;;;;10.63;4.20;;;;;;;12.55;100.00;100301.88;4983584;28;20034;-78
2023/03/30 01:22:19;;;;;;;8.27;4.55;;;;;;;12.54;100.00;100307.31;5024520;28;20038;-77
2023/03/30 01:24:52;;;;;;;13.90;4.82;;;;;;;12.56;100.00;100313.44;5004035;28;20037;-80
2023/03/30 01:28:01;;;;;;;10.68;4.32;;;;;;;12.57;100.00;100305.28;5009747;28;20030;-78
2023/03/30 01:30:51;;;;;;;12.93;5.03;;;;;;;12.59;100.00;100299.81;5021968;28;20113;-78
2023/03/30 01:33:42;;;;;;;8.18;4.00;;;;;;;12.56;100.00;100292.00;4990658;28;20045;-78
2023/03/30 01:36:47;;;;;;;10.18;4.28;;;;;;;12.68;100.00;100304.50;5006510;28;20038;-78
2023/03/30 01:39:19;;;;;;;11.65;4.40;;;;;;;12.74;100.00;100290.66;5007736;28;20045;-78
2023/03/30 01:42:08;;;;;;;8.25;3.72;;;;;;;12.80;100.00;100294.72;5013511;28;20053;-80
2023/03/30 01:44:53;;;;;;;10.27;4.63;;;;;;;12.78;100.00;100284.09;5001328;28;20568;-78
2023/03/30 01:47:38;;;;;;;10.73;3.83;;;;;;;12.80;100.00;100278.66;5004881;28;20415;-79
2023/03/30 01:50:08;;;;;;;11.43;4.10;;;;;;;12.79;100.00;100264.41;5004361;28;20513;-79
2023/03/30 01:52:59;;;;;;;9.00;4.60;;;;;;;12.75;100.00;100262.94;5002084;28;20129;-78
2023/03/30 01:55:41;;;;;;;10.73;4.00;;;;;;;12.72;100.00;100273.84;5008234;28;20038;-79
2023/03/30 01:58:18;;;;;;;9.35;4.18;;;;;;;12.70;100.00;100266.91;4990712;28;20030;-79
2023/03/30 02:01:05;;;;;;;10.45;3.72;;;;;;;12.74;100.00;100266.56;4989929;28;20038;-79
2023/03/30 02:03:35;;;;;;;7.15;4.35;;;;;;;12.76;100.00;100275.34;5024560;28;20421;-79
2023/03/30 02:06:10;;;;;;;8.43;3.85;;;;;;;12.75;100.00;100270.13;4994749;28;20109;-78
2023/03/30 02:08:37;;;;;;;10.63;3.63;;;;;;;12.72;100.00;100271.19;5006966;28;20032;-78
2023/03/30 02:11:03;;;;;;;8.93;3.97;;;;;;;12.69;100.00;100260.72;4991968;28;21763;-77
2023/03/30 02:13:32;;;;;;;11.07;3.75;;;;;;;12.69;100.00;100258.03;5017321;28;20473;-78
2023/03/30 02:16:08;;;;;;;11.23;4.38;;;;;;;12.69;100.00;100254.47;5031203;28;20073;-79
2023/03/30 02:18:37;;;;;;;8.77;3.55;;;;;;;12.59;100.00;100251.63;5008637;28;20039;-79
2023/03/30 02:21:04;;;;;;;13.43;4.85;;;;;;;12.50;100.00;100258.50;5028985;28;20128;-79
2023/03/30 02:23:34;;;;;;;10.73;3.90;;;;;;;12.44;100.00;100274.16;5032138;28;20037;-78
2023/03/30 02:26:01;;;;;;;10.88;3.97;;;;;;;12.39;100.00;100270.00;5028213;28;20184;-77
2023/03/30 02:28:27;;;;;;;10.27;3.97;;;;;;;12.43;100.00;100272.44;5000644;28;20034;-78
2023/03/30 02:30:54;;;;;;;13.05;3.45;;;;;;;12.47;100.00;100268.56;5013521;28;20108;-78
2023/03/30 02:33:53;;;;;;;8.85;4.13;;;;;;;12.59;100.00;100273.03;5011476;28;20069;-77
2023/03/30 02:36:41;;;;;;;7.07;3.45;;;;;;;12.74;100.00;100273.75;4995529;28;20025;-78
2023/03/30 02:39:14;;;;;;;11.55;4.00;;;;;;;12.86;100.00;100275.53;5026480;28;20033;-77
2023/03/30 02:42:04;;;;;;;15.25;4.95;;;;;;;12.91;100.00;100277.84;5016625;28;20470;-77
2023/03/30 02:44:48;;;;;;;11.95;3.55;;;;;;;12.93;100.00;100279.44;5014640;28;20037;-78
2023/03/30 02:47:21;;;;;;;9.88;3.80;;;;;;;12.95;100.00;100273.97;5021738;28;20038;-77
2023/03/30 02:49:56;;;;;;;9.48;3.50;;;;;;;13.00;100.00;100263.78;5012894;28;20055;-78
2023/03/30 02:52:32;;;;;;;13.18;4.00;;;;;;;13.04;100.00;100264.41;5012175;28;20116;-77
2023/03/30 02:55:14;;;;;;;9.00;3.55;;;;;;;13.04;100.00;100270.59;5017367;28;20517;-77
2023/03/30 02:58:18;;;;;;;13.95;4.22;;;;;;;13.03;100.00;100271.59;5004913;28;20039;-77
2023/03/30 03:01:44;;;;;;;12.23;3.97;;;;;;;13.03;100.00;100266.25;5024493;28;20490;-76
2023/03/30 03:04:15;;;;;;;11.77;3.90;;;;;;;13.03;100.00;100266.25;5002269;28;20076;-79
2023/03/30 03:07:18;;;;;;;8.55;3.75;;;;;;;13.02;100.00;100264.50;5008516;28;20941;-79
2023/03/30 03:09:46;;;;;;;11.40;4.65;;;;;;;12.98;100.00;100258.53;4997378;28;20056;-76
2023/03/30 03:12:16;;;;;;;10.02;3.67;;;;;;;12.97;100.00;100255.97;4995433;28;20124;-78
2023/03/30 03:14:44;;;;;;;11.27;3.80;;;;;;;12.92;100.00;100237.56;5005940;28;20057;-77
2023/03/30 03:17:12;;;;;;;9.75;4.10;;;;;;;12.86;100.00;100242.50;5016408;28;20033;-78
2023/03/30 03:19:43;;;;;;;13.30;4.20;;;;;;;12.72;100.00;100241.72;5010872;28;20033;-79
2023/03/30 03:22:10;;;;;;;12.60;3.85;;;;;;;12.65;100.00;100245.81;5005459;28;20029;-78
2023/03/30 03:24:38;;;;;;;15.55;3.80;;;;;;;12.61;100.00;100244.34;5014190;28;20037;-78
2023/03/30 03:27:23;;;;;;;8.95;3.53;;;;;;;12.61;100.00;100247.00;5013670;28;20406;-77
2023/03/30 03:30:00;;;;;;;8.77;3.88;;;;;;;12.56;100.00;100241.13;4995485;28;20025;-77
2023/03/30 03:32:29;;;;;;;12.30;4.93;;;;;;;12.55;100.00;100234.09;5001434;28;20037;-77
2023/03/30 03:34:55;;;;;;;10.50;3.42;;;;;;;12.54;100.00;100237.72;4998988;28;20030;-79
2023/03/30 03:37:23;;;;;;;8.45;3.35;;;;;;;12.58;100.00;100232.03;5015379;28;20415;-78
2023/03/30 03:39:50;;;;;;;7.93;3.38;;;;;;;12.61;100.00;100213.03;4997040;28;20042;-77
2023/03/30 03:42:17;;;;;;;10.63;3.20;;;;;;;12.68;100.00;100208.09;4982176;28;20045;-79
2023/03/30 03:45:11;;;;;;;8.32;2.75;;;;;;;12.73;100.00;100226.50;5001699;28;20033;-78
2023/03/30 03:47:53;;;;;;;8.82;2.90;;;;;;;12.72;100.00;100222.97;5011809;28;20030;-77
2023/03/30 03:50:33;;;;;;;7.40;2.80;;;;;;;12.71;100.00;100202.53;5015188;28;20156;-78
2023/03/30 03:52:59;;;;;;;9.70;2.65;;;;;;;12.70;100.00;100205.31;5006025;28;20422;-77
2023/03/30 03:55:28;;;;;;;10.75;3.05;;;;;;;12.69;100.00;100214.31;4990081;28;20102;-77
2023/03/30 03:58:14;;;;;;;6.22;2.40;;;;;;;12.70;100.00;100206.16;5009959;28;20033;-78
2023/03/30 04:00:40;;;;;;;5.65;2.45;;;;;;;12.67;100.00;100201.03;5002637;28;20049;-77
2023/03/30 04:03:08;;;;;;;8.68;2.60;;;;;;;12.73;100.00;100205.94;5014200;28;20037;-77
2023/03/30 04:05:53;;;;;;;13.48;3.15;;;;;;;12.83;100.00;100197.22;5029658;28;20033;-77
2023/03/30 04:08:20;;;;;;;10.23;2.78;;;;;;;12.89;100.00;100215.50;5009959;28;20148;-78
2023/03/30 04:10:47;;;;;;;12.85;2.33;;;;;;;12.92;100.00;100213.44;5018335;28;20502;-77
2023/03/30 04:13:40;;;;;;;11.20;2.70;;;;;;;12.95;100.00;100207.00;4991704;28;20111;-77
2023/03/30 04:16:20;;;;;;;10.00;2.93;;;;;;;12.96;100.00;100214.06;5009524;28;20033;-78
2023/03/30 04:18:58;;;;;;;6.40;2.70;;;;;;;12.92;100.00;100217.97;5009311;28;20397;-78
2023/03/30 04:21:46;;;;;;;12.40;3.97;;;;;;;12.84;100.00;100213.19;5010955;28;20108;-78
2023/03/30 04:24:28;;;;;;;13.82;3.83;;;;;;;12.84;100.00;100214.97;4997975;28;20040;-78
2023/03/30 04:27:27;;;;;;;9.18;2.70;;;;;;;12.80;100.00;100209.00;5000110;28;20057;-84
2023/03/30 04:30:13;;;;;;;16.80;4.22;;;;;;;12.85;100.00;100197.97;5010821;28;20032;-78
2023/03/30 04:33:03;;;;;;;12.75;2.80;;;;;;;12.89;100.00;100208.31;4989263;28;20049;-78
2023/03/30 04:35:52;;;;;;;15.35;3.42;;;;;;;12.70;100.00;100211.53;5007744;28;20207;-77
2023/03/30 04:38:26;;;;;;;14.07;3.17;;;;;;;12.28;100.00;100205.69;5011786;28;20065;-79
2023/03/30 04:41:15;;;;;;;14.07;3.40;;;;;;;11.95;100.00;100204.47;5010787;28;20063;-81
2023/03/30 04:44:06;;;;;;;13.88;3.70;;;;;;;11.72;100.00;100205.22;4999827;28;20490;-79
2023/03/30 04:46:57;;;;;;;17.13;4.05;;;;;;;11.59;100.00;100206.09;5009594;28;20056;-80
2023/03/30 04:49:44;;;;;;;15.88;4.00;;;;;;;11.48;100.00;100200.63;5013127;28;20585;-78
2023/03/30 04:52:29;;;;;;;17.35;4.28;;;;;;;11.44;100.00;100204.47;5028037;28;20113;-80
2023/03/30 04:55:36;;;;;;;16.23;4.35;;;;;;;11.47;100.00;100203.41;4979709;28;20049;-79
2023/03/30 04:58:29;;;;;;;19.85;4.28;;;;;;;11.46;100.00;100197.19;5010576;28;20041;-78
2023/03/30 05:00:56;;;;;;;18.42;3.75;;;;;;;11.47;100.00;100198.91;5012941;28;20059;-78
2023/03/30 05:03:26;;;;;;;24.17;4.43;;;;;;;11.47;100.00;100193.56;5005617;28;20096;-77
2023/03/30 05:06:11;;;;;;;22.55;4.00;;;;;;;11.46;100.00;100191.84;5007657;28;20095;-78
2023/03/30 05:08:40;;;;;;;18.63;3.95;;;;;;;11.45;100.00;100192.81;5008943;28;20049;-79
2023/03/30 05:11:33;;;;;;;26.83;5.72;;;;;;;11.38;100.00;100184.34;5002951;28;20673;-77
2023/03/30 05:14:17;;;;;;;25.23;5.22;;;;;;;11.36;100.00;100193.44;4996727;28;20057;-78
2023/03/30 05:17:05;;;;;;;27.25;5.22;;;;;;;11.31;100.00;100192.91;4993583;28;20061;-78
2023/03/30 05:19:41;;;;;;;28.80;5.68;;;;;;;11.22;100.00;100189.91;5019665;28;20478;-78
2023/03/30 05:22:21;;;;;;;31.48;4.70;;;;;;;11.19;100.00;100197.28;5030893;28;20085;-78
2023/03/30 05:25:07;;;;;;;20.35;4.85;;;;;;;11.13;100.00;100184.34;5024441;28;20049;-78
2023/03/30 05:28:01;;;;;;;20.45;5.78;;;;;;;11.13;100.00;100187.88;4985131;28;20049;-78
2023/03/30 05:30:53;;;;;;;26.17;5.22;;;;;;;11.13;100.00;100195.03;4994084;28;20111;-77
2023/03/30 05:33:38;;;;;;;37.70;5.13;;;;;;;11.07;100.00;100196.31;5012567;28;20426;-79
2023/03/30 05:36:27;;;;;;;32.15;6.95;;;;;;;11.03;100.00;100202.81;5016795;28;20038;-78
2023/03/30 05:39:06;;;;;;;38.40;5.65;;;;;;;10.99;100.00;100203.97;5031419;28;20107;-79
2023/03/30 05:41:49;;;;;;;28.13;4.72;;;;;;;11.03;100.00;100210.81;5011547;28;20122;-78
2023/03/30 05:44:26;;;;;;;33.78;5.00;;;;;;;11.04;100.00;100201.84;5031557;28;20049;-78
2023/03/30 05:47:21;;;;;;;42.08;7.00;;;;;;;11.04;100.00;100202.69;4958247;28;20397;-77
2023/03/30 05:50:01;;;;;;;33.33;4.90;;;;;;;11.05;100.00;100219.56;5030667;28;20522;-77
2023/03/30 05:52:50;;;;;;;28.35;6.03;;;;;;;11.07;100.00;100217.69;5019011;28;20176;-78
2023/03/30 05:55:45;;;;;;;27.00;5.78;;;;;;;11.05;100.00;100201.75;5012325;28;20045;-81
2023/03/30 05:58:31;;;;;;;33.97;5.10;;;;;;;11.10;100.00;100216.59;5016691;28;20182;-79
2023/03/30 06:01:23;;;;;;;35.75;5.65;;;;;;;11.12;100.00;100215.53;5016901;28;20041;-78
2023/03/30 06:03:50;;;;;;;30.67;5.10;;;;;;;11.18;100.00;100211.59;5035809;28;20114;-76
2023/03/30 06:06:16;;;;;;;28.77;5.60;;;;;;;11.27;100.00;100207.44;5035782;28;20490;-78
2023/03/30 06:08:46;;;;;;;27.10;5.40;;;;;;;11.28;100.00;100214.50;5003308;28;20483;-79
2023/03/30 06:11:16;;;;;;;29.75;5.35;;;;;;;11.32;100.00;100222.19;5002533;28;20025;-77
2023/03/30 06:14:03;;;;;;;23.30;5.28;;;;;;;11.51;100.00;100224.47;5018053;28;20155;-77
2023/03/30 06:16:30;;;;;;;29.05;6.40;;;;;;;11.69;100.00;100233.03;4998050;28;20084;-79
2023/03/30 06:18:57;;;;;;;26.13;4.43;;;;;;;11.78;100.00;100239.56;5000455;28;20084;-76
2023/03/30 06:21:25;;;;;;;26.60;5.82;;;;;;;11.95;100.00;100247.28;5009911;28;20512;-76
2023/03/30 06:24:14;;;;;;;33.67;5.65;;;;;;;12.11;100.00;100254.19;5019717;28;20037;-77
2023/03/30 06:26:41;;;;;;;36.92;5.25;;;;;;;11.90;100.00;100249.41;5015449;28;20029;-79
2023/03/30 06:29:08;;;;;;;25.50;4.85;;;;;;;11.73;100.00;100253.25;4995898;28;20025;-80
2023/03/30 06:31:35;;;;;;;33.95;5.88;;;;;;;11.67;100.00;100252.78;5009913;28;20037;-78
2023/03/30 06:34:39;;;;;;;34.15;5.72;;;;;;;11.70;100.00;100225.84;4933907;29;20139;-81
2023/03/30 06:37:07;;;;;;;33.40;5.28;;;;;;;11.84;100.00;100256.00;4923835;28;20041;-79
2023/03/30 06:39:36;;;;;;;35.20;7.38;;;;;;;11.84;100.00;100249.81;4958467;28;20057;-80
2023/03/30 06:42:05;;;;;;;30.27;5.57;;;;;;;11.84;100.00;100257.84;5015314;28;20072;-79
2023/03/30 06:44:55;;;;;;;29.15;5.32;;;;;;;11.82;100.00;100257.09;5004032;28;20041;-78
2023/03/30 06:47:21;;;;;;;38.70;5.93;;;;;;;11.78;100.00;100261.81;4998829;28;20503;-79
2023/03/30 06:50:06;;;;;;;36.65;5.15;;;;;;;11.76;100.00;100260.19;5015581;28;20037;-76
2023/03/30 06:52:51;;;;;;;40.05;6.90;;;;;;;11.73;100.00;100261.25;5032207;28;20049;-80
2023/03/30 06:55:20;;;;;;;33.72;6.35;;;;;;;11.70;100.00;100268.63;5014969;28;20037;-77
2023/03/30 06:57:47;;;;;;;31.67;6.65;;;;;;;11.66;100.00;100259.97;5000444;28;20046;-79
2023/03/30 07:00:16;;;;;;;38.80;5.80;;;;;;;11.67;100.00;100260.81;4995510;28;20084;-78
2023/03/30 07:03:17;;;;;;;37.55;5.47;;;;;;;11.69;100.00;100278.47;5011924;28;20053;-78
2023/03/30 07:05:51;;;;;;;41.85;5.50;;;;;;;11.71;100.00;100271.22;5006737;28;20036;-78
2023/03/30 07:08:37;;;;;;;30.40;5.40;;;;;;;11.77;100.00;100284.16;5020614;28;20051;-79
2023/03/30 07:11:05;;;;;;;35.22;5.65;;;;;;;11.82;100.00;100283.84;5034934;28;20041;-78
2023/03/30 07:13:34;;;;;;;43.72;5.65;;;;;;;11.92;100.00;100289.44;5034383;28;20467;-77
2023/03/30 07:16:00;;;;;;;32.90;4.95;;;;;;;11.95;100.00;100289.22;5030283;28;20038;-78
2023/03/30 07:18:30;;;;;;;32.70;5.72;;;;;;;11.99;100.00;100291.56;5015073;28;20497;-77
2023/03/30 07:20:59;;;;;;;33.20;6.53;;;;;;;12.03;100.00;100295.72;5031255;28;20040;-77
2023/03/30 07:23:30;;;;;;;35.55;5.32;;;;;;;12.08;100.00;100294.53;4979141;28;20087;-78
2023/03/30 07:25:57;;;;;;;29.95;6.47;;;;;;;12.09;100.00;100301.63;5007404;28;20037;-78
2023/03/30 07:28:39;;;;;;;33.13;5.15;;;;;;;12.10;100.00;100292.66;5014450;28;20163;-78
2023/03/30 07:31:07;;;;;;;40.78;7.30;;;;;;;12.19;100.00;100303.53;5032802;28;20037;-79
2023/03/30 07:33:35;;;;;;;31.92;6.88;;;;;;;12.43;100.00;100308.09;5013996;28;20393;-78
2023/03/30 07:36:05;;;;;;;37.78;6.35;;;;;;;12.70;100.00;100307.94;4998105;28;20029;-78
2023/03/30 07:38:32;;;;;;;39.45;5.82;;;;;;;12.69;100.00;100300.00;5014612;28;20120;-78
2023/03/30 07:40:59;;;;;;;36.05;7.18;;;;;;;12.63;100.00;100308.50;5013959;28;20121;-78
2023/03/30 07:43:26;;;;;;;29.77;5.90;;;;;;;12.66;100.00;100317.16;4998449;28;20128;-78
2023/03/30 07:45:54;;;;;;;32.75;5.05;;;;;;;12.78;100.00;100318.94;5014028;28;20094;-80
2023/03/30 07:48:28;;;;;;;33.28;5.50;;;;;;;12.82;100.00;100322.25;4998991;28;20033;-77
2023/03/30 07:51:02;;;;;;;34.20;5.32;;;;;;;12.86;100.00;100329.09;4997581;28;20029;-78
2023/03/30 07:53:30;;;;;;;35.33;6.07;;;;;;;12.86;100.00;100331.78;4997899;28;20049;-79
2023/03/30 07:55:57;;;;;;;44.33;7.18;;;;;;;13.00;100.00;100330.75;4993888;28;20045;-81
2023/03/30 07:58:33;;;;;;;38.15;6.68;;;;;;;13.14;100.00;100337.78;4993485;28;20037;-78
2023/03/30 08:01:02;;;;;;;33.58;7.40;;;;;;;13.33;100.00;100340.84;5021007;28;20056;-78
2023/03/30 08:03:48;;;;;;;28.85;5.90;;;;;;;13.52;100.00;100331.41;5031535;28;20047;-77
2023/03/30 08:06:15;;;;;;;35.10;6.35;;;;;;;13.59;100.00;100332.66;5012468;28;20029;-78
2023/03/30 08:09:03;;;;;;;29.15;5.07;;;;;;;13.54;100.00;100341.03;5013141;28;20053;-79
2023/03/30 08:11:31;;;;;;;32.55;5.32;;;;;;;13.54;100.00;100342.88;4997246;28;20053;-78
2023/03/30 08:13:58;;;;;;;29.27;4.97;;;;;;;13.40;100.00;100341.25;5013810;28;20148;-76
2023/03/30 08:16:24;;;;;;;39.05;5.97;;;;;;;13.36;100.00;100345.09;5014056;28;20040;-77
2023/03/30 08:18:53;;;;;;;34.15;5.82;;;;;;;13.49;100.00;100353.97;5030288;28;20045;-78
2023/03/30 08:21:21;;;;;;;41.08;6.13;;;;;;;13.69;100.00;100344.38;5023275;28;20033;-77
2023/03/30 08:23:47;;;;;;;31.45;5.80;;;;;;;13.62;100.00;100350.31;5021527;28;20509;-78
2023/03/30 08:26:13;;;;;;;38.38;6.40;;;;;;;13.75;100.00;100354.66;5032092;28;20045;-78
2023/03/30 08:28:40;;;;;;;40.60;6.95;;;;;;;13.84;100.00;100371.84;5013831;28;20111;-78
2023/03/30 08:31:09;;;;;;;43.88;7.53;;;;;;;13.94;100.00;100358.56;5031834;28;20041;-77
2023/03/30 08:33:36;;;;;;;37.55;6.07;;;;;;;13.87;100.00;100368.94;4997436;28;20131;-79
2023/03/30 08:36:03;;;;;;;29.85;5.78;;;;;;;14.07;100.00;100374.59;5013717;28;20179;-79
2023/03/30 08:38:29;;;;;;;29.33;6.55;;;;;;;14.22;100.00;100343.00;5013151;28;20030;-78
2023/03/30 08:40:55;;;;;;;42.20;7.00;;;;;;;13.94;100.00;100366.63;5030996;28;20494;-77
2023/03/30 08:43:31;;;;;;;35.30;6.18;;;;;;;14.17;100.00;100372.91;5013546;28;20044;-78
2023/03/30 08:46:00;;;;;;;40.35;7.32;;;;;;;14.48;100.00;100367.78;5013399;28;20124;-78
2023/03/30 08:48:31;;;;;;;35.30;6.00;;;;;;;14.48;100.00;100359.75;5031160;28;20097;-79
2023/03/30 08:51:07;;;;;;;41.55;6.57;;;;;;;14.60;100.00;100372.25;5013062;28;20479;-79
2023/03/30 08:53:34;;;;;;;34.95;5.22;;;;;;;15.03;100.00;100366.06;5011522;28;20048;-78
2023/03/30 08:56:12;;;;;;;37.60;5.75;;;;;;;15.54;100.00;100366.41;4977503;28;20461;-76
2023/03/30 08:58:52;;;;;;;29.88;5.85;;;;;;;15.49;100.00;100366.81;5024363;28;20495;-78
2023/03/30 09:01:55;;;;;;;30.70;5.22;;;;;;;15.82;100.00;100373.91;5027925;28;20037;-79
2023/03/30 09:04:43;;;;;;;25.38;5.05;;;;;;;15.71;100.00;100384.66;4986836;28;20053;-77
2023/03/30 09:07:21;;;;;;;26.48;4.85;;;;;;;16.01;100.00;100386.66;5030500;28;20033;-77
2023/03/30 09:09:50;;;;;;;25.67;4.35;;;;;;;15.91;100.00;100384.88;5033616;28;20110;-78
2023/03/30 09:12:27;;;;;;;35.90;5.68;;;;;;;16.17;100.00;100388.84;5017222;28;20041;-76
2023/03/30 09:15:05;;;;;;;28.80;4.90;;;;;;;16.03;100.00;100394.59;5035109;28;20053;-78
2023/03/30 09:18:00;;;;;;;26.42;5.20;;;;;;;16.16;100.00;100397.06;5034166;28;20025;-78
2023/03/30 09:20:29;;;;;;;33.65;7.43;;;;;;;15.74;100.00;100410.53;5012334;28;20041;-78
2023/03/30 09:22:59;;;;;;;27.70;5.03;;;;;;;15.97;100.00;100392.41;5034586;28;20042;-78
2023/03/30 09:25:46;;;;;;;27.70;5.93;;;;;;;15.88;100.00;100403.00;5035093;28;20091;-78
2023/03/30 09:28:40;;;;;;;31.48;5.63;;;;;;;15.46;100.00;100410.94;5033961;28;20021;-78
2023/03/30 09:31:46;;;;;;;32.65;5.65;;;;;;;15.39;100.00;100396.28;5033695;28;20044;-78
2023/03/30 09:34:26;;;;;;;39.20;6.85;;;;;;;15.05;100.00;100406.28;5034147;28;20044;-78
2023/03/30 09:37:08;;;;;;;36.97;6.03;;;;;;;14.78;100.00;100412.03;5016293;28;20044;-77
2023/03/30 09:39:53;;;;;;;39.75;7.25;;;;;;;14.52;100.00;100420.31;4997520;28;20034;-77
2023/03/30 09:42:46;;;;;;;36.65;6.78;;;;;;;14.60;100.00;100417.91;5015187;28;20033;-79
2023/03/30 09:45:19;;;;;;;38.28;6.57;;;;;;;14.81;100.00;100427.94;4997197;28;20499;-79
2023/03/30 09:47:45;;;;;;;37.97;6.50;;;;;;;14.97;100.00;100443.69;5011320;28;20048;-78
2023/03/30 09:50:23;;;;;;;33.50;5.65;;;;;;;15.39;100.00;100444.69;5016101;28;20029;-78
2023/03/30 09:53:02;;;;;;;25.52;5.43;;;;;;;15.93;100.00;100448.34;5034433;28;20044;-78
2023/03/30 09:55:33;;;;;;;36.47;6.35;;;;;;;16.53;100.00;100434.28;5016436;28;20478;-78
2023/03/30 09:58:17;;;;;;;30.05;5.63;;;;;;;16.42;100.00;100432.53;5015314;28;20029;-80
2023/03/30 10:00:44;;;;;;;30.40;5.60;;;;;;;16.63;100.00;100436.06;5016606;28;20056;-80
2023/03/30 10:03:21;;;;;;;40.40;6.53;;;;;;;17.00;100.00;100438.25;5016582;28;20128;-78
2023/03/30 10:06:01;;;;;;;29.95;5.55;;;;;;;17.61;100.00;100444.47;5033900;28;20041;-81
2023/03/30 10:08:27;;;;;;;34.15;6.18;;;;;;;17.47;100.00;100447.59;5033172;28;20048;-77
2023/03/30 10:11:13;;;;;;;37.33;5.65;;;;;;;17.26;100.00;100448.56;5033527;28;20025;-78
2023/03/30 10:13:43;;;;;;;34.08;5.97;;;;;;;16.19;100.00;100443.44;5015872;28;20045;-79
2023/03/30 10:16:32;;;;;;;35.80;5.30;;;;;;;15.58;100.00;100453.94;5032770;28;20120;-78
2023/03/30 10:19:13;;;;;;;34.70;5.47;;;;;;;15.65;100.00;100460.53;5032057;28;20040;-78
2023/03/30 10:21:45;;;;;;;31.83;6.10;;;;;;;15.47;100.00;100453.00;5033466;28;20030;-76
2023/03/30 10:24:21;;;;;;;37.78;5.85;;;;;;;15.41;100.00;100452.66;5016851;28;20095;-78
2023/03/30 10:26:51;;;;;;;33.80;5.85;;;;;;;15.74;100.00;100449.03;5015546;28;20104;-78
2023/03/30 10:29:21;;;;;;;35.10;5.95;;;;;;;16.05;100.00;100451.88;5014525;28;20029;-77
2023/03/30 10:31:51;;;;;;;33.97;5.30;;;;;;;17.00;100.00;100459.81;5032053;28;20487;-79
2023/03/30 10:34:34;;;;;;;40.30;6.25;;;;;;;17.24;100.00;100456.78;4999207;28;20387;-77
2023/03/30 10:37:05;;;;;;;37.97;6.40;;;;;;;16.49;100.00;100455.25;5033345;28;20033;-78
2023/03/30 10:39:33;;;;;;;33.40;5.28;;;;;;;15.76;100.00;100455.16;5015430;28;20029;-77
2023/03/30 10:42:06;;;;;;;36.85;5.80;;;;;;;15.93;100.00;100447.50;5015868;28;20037;-77
2023/03/30 10:44:54;;;;;;;35.15;6.13;;;;;;;15.53;100.00;100443.59;5033138;28;20041;-76
2023/03/30 10:47:41;;;;;;;32.20;5.15;;;;;;;15.23;100.00;100463.09;5015341;28;20033;-78
2023/03/30 10:50:45;;;;;;;31.80;6.07;;;;;;;14.86;100.00;100455.28;4992042;28;20053;-78
2023/03/30 10:53:30;;;;;;;37.67;6.88;;;;;;;14.83;100.00;100458.22;5013076;28;20037;-78
2023/03/30 10:56:25;;;;;;;31.27;5.95;;;;;;;15.02;100.00;100455.78;5001128;28;20044;-78
2023/03/30 10:59:28;;;;;;;44.42;7.75;;;;;;;15.05;100.00;100468.09;5032029;28;20116;-77
2023/03/30 11:02:34;;;;;;;32.83;5.38;;;;;;;15.04;100.00;100471.75;5032735;28;20045;-77
2023/03/30 11:05:12;;;;;;;40.65;6.68;;;;;;;15.39;100.00;100468.91;5012919;28;20479;-78
2023/03/30 11:07:55;;;;;;;32.58;5.60;;;;;;;16.23;100.00;100473.66;5017795;28;20108;-78
2023/03/30 11:10:40;;;;;;;32.17;6.18;;;;;;;16.97;100.00;100472.72;5032666;28;20029;-78
2023/03/30 11:13:22;;;;;;;39.15;5.57;;;;;;;17.32;100.00;100483.06;5014840;28;20033;-78
2023/03/30 11:16:12;;;;;;;39.85;6.10;;;;;;;16.57;100.00;100471.63;5032563;28;20053;-78
2023/03/30 11:18:46;;;;;;;27.23;4.72;;;;;;;15.79;100.00;100476.44;5004622;28;20034;-78
2023/03/30 11:21:22;;;;;;;35.00;6.07;;;;;;;15.27;100.00;100478.84;4994630;28;20084;-77
2023/03/30 11:23:51;;;;;;;51.45;6.72;;;;;;;15.09;100.00;100481.16;5012911;28;20041;-77
2023/03/30 11:26:31;;;;;;;38.97;5.63;;;;;;;15.07;100.00;100488.50;5002576;28;20087;-77
2023/03/30 11:29:16;;;;;;;37.00;5.88;;;;;;;15.02;100.00;100488.03;5013665;28;20041;-80
2023/03/30 11:32:14;;;;;;;33.03;5.30;;;;;;;15.13;100.00;100489.84;5031145;28;20033;-77
2023/03/30 11:35:00;;;;;;;27.25;5.25;;;;;;;15.27;100.00;100494.13;5011945;28;20057;-77
2023/03/30 11:37:32;;;;;;;35.08;5.93;;;;;;;15.12;100.00;100490.84;4999617;28;20048;-76
2023/03/30 11:40:09;;;;;;;29.50;4.65;;;;;;;15.01;100.00;100480.09;5014099;28;20033;-77
2023/03/30 11:42:36;;;;;;;30.40;6.85;;;;;;;14.80;100.00;100491.56;5008142;28;20226;-78
2023/03/30 11:45:12;;;;;;;31.38;5.40;;;;;;;14.86;100.00;100488.38;4997612;28;20441;-77
2023/03/30 11:47:52;;;;;;;35.42;5.22;;;;;;;14.80;100.00;100486.19;5011959;28;20403;-77
2023/03/30 11:50:41;;;;;;;34.67;5.05;;;;;;;14.66;100.00;100495.31;5004283;28;20390;-78
2023/03/30 11:53:17;;;;;;;35.05;5.28;;;;;;;14.67;100.00;100494.34;5028044;28;20061;-79
2023/03/30 11:55:55;;;;;;;34.47;7.38;;;;;;;14.88;100.00;100493.66;5011416;28;20042;-77